Time;durP1;ratioP1;P1;durP2;ratioP2;P2;SDS_P1;SDS_P2;PMS_P1;PMS_P2;Temp;Humidity;BMP_temperature;BMP_pressure;BME280_temperature;BME280_humidity;BME280_pressure;Samples;Min_cycle;Max_cycle;Signal;HPM_P1;HPM_P2
2023/08/14 00:01:15;;;;;;;0.98;0.60;;;;;;;;;;10351966;28;20149;-89
2023/08/14 00:06:20;;;;;;;1.00;0.52;;;;;;;;;;10368210;28;20073;-89
2023/08/14 00:11:24;;;;;;;3.40;0.70;;;;;;;;;;10372253;28;20054;-89
2023/08/14 00:16:28;;;;;;;1.08;0.65;;;;;;;;;;10377637;28;20045;-91
2023/08/14 00:21:32;;;;;;;0.70;0.60;;;;;;;;;;10372106;28;20064;-88
2023/08/14 00:26:36;;;;;;;1.23;0.60;;;;;;;;;;10358216;28;20537;-89
2023/08/14 00:31:39;;;;;;;1.00;0.68;;;;;;;;;;10353811;28;20447;-89
2023/08/14 00:36:44;;;;;;;1.45;0.80;;;;;;;;;;10359472;28;20042;-89
2023/08/14 00:41:48;;;;;;;1.48;0.65;;;;;;;;;;10382297;28;20478;-89
2023/08/14 00:46:52;;;;;;;2.13;0.60;;;;;;;;;;10378066;28;20044;-90
2023/08/14 00:51:57;;;;;;;3.70;1.08;;;;;;;;;;10373738;28;20057;-90
2023/08/14 00:57:01;;;;;;;3.05;0.70;;;;;;;;;;10378897;28;20041;-90
2023/08/14 01:02:04;;;;;;;1.08;0.70;;;;;;;;;;10379005;28;20533;-90
2023/08/14 01:07:09;;;;;;;2.08;0.88;;;;;;;;;;10369621;28;20033;-89
2023/08/14 01:12:21;;;;;;;1.52;0.50;;;;;;;;;;10376252;28;20050;-89
2023/08/14 01:17:27;;;;;;;0.98;0.50;;;;;;;;;;10366620;28;20133;-89
2023/08/14 01:22:45;;;;;;;1.00;0.55;;;;;;;;;;10362873;28;20137;-90
2023/08/14 01:27:51;;;;;;;1.27;0.50;;;;;;;;;;10357220;28;20034;-90
2023/08/14 01:32:55;;;;;;;4.43;1.10;;;;;;;;;;10360515;28;20042;-90
2023/08/14 01:38:03;;;;;;;2.35;0.82;;;;;;;;;;10371301;28;20038;-90
2023/08/14 01:43:10;;;;;;;2.78;0.80;;;;;;;;;;10375100;28;20173;-90
2023/08/14 01:48:15;;;;;;;1.77;0.60;;;;;;;;;;10359310;28;20089;-90
2023/08/14 01:53:19;;;;;;;1.70;0.70;;;;;;;;;;10381477;28;20054;-90
2023/08/14 01:58:23;;;;;;;0.80;0.70;;;;;;;;;;10379307;28;20494;-89
2023/08/14 02:03:27;;;;;;;1.17;0.60;;;;;;;;;;10358900;28;20049;-88
2023/08/14 02:08:31;;;;;;;2.20;0.80;;;;;;;;;;10356282;28;20643;-88
2023/08/14 02:13:38;;;;;;;2.90;0.73;;;;;;;;;;10349738;28;20046;-88
2023/08/14 02:18:41;;;;;;;1.63;0.93;;;;;;;;;;10379399;28;20041;-88
2023/08/14 02:23:45;;;;;;;1.77;0.88;;;;;;;;;;10372336;28;20056;-88
2023/08/14 02:28:49;;;;;;;1.42;0.80;;;;;;;;;;10401984;28;20415;-88
2023/08/14 02:33:58;;;;;;;4.60;0.70;;;;;;;;;;10380743;28;20050;-88
2023/08/14 02:39:02;;;;;;;1.02;0.73;;;;;;;;;;10363692;28;20037;-91
2023/08/14 02:44:07;;;;;;;1.77;0.80;;;;;;;;;;10376334;28;20045;-88
2023/08/14 02:49:11;;;;;;;2.50;0.70;;;;;;;;;;10382860;28;20077;-89
2023/08/14 02:54:15;;;;;;;1.05;0.70;;;;;;;;;;10354105;28;20065;-88
2023/08/14 02:59:19;;;;;;;0.88;0.50;;;;;;;;;;10366727;28;20046;-88
2023/08/14 03:04:23;;;;;;;1.48;0.70;;;;;;;;;;10387073;28;20053;-89
2023/08/14 03:09:26;;;;;;;1.95;0.73;;;;;;;;;;10368952;28;20038;-90
2023/08/14 03:14:31;;;;;;;1.60;0.70;;;;;;;;;;10353717;28;20120;-89
2023/08/14 03:19:35;;;;;;;2.20;0.70;;;;;;;;;;10363246;28;20061;-89
2023/08/14 03:24:38;;;;;;;0.77;0.70;;;;;;;;;;10377387;28;20457;-90
2023/08/14 03:29:43;;;;;;;1.58;0.65;;;;;;;;;;10370238;28;20038;-89
2023/08/14 03:34:47;;;;;;;1.42;0.63;;;;;;;;;;10361941;28;20533;-90
2023/08/14 03:39:50;;;;;;;1.40;0.70;;;;;;;;;;10370123;28;20515;-91
2023/08/14 03:44:55;;;;;;;2.13;0.80;;;;;;;;;;10361877;28;20128;-90
2023/08/14 03:49:59;;;;;;;1.05;0.73;;;;;;;;;;10357148;28;20076;-90
2023/08/14 03:55:03;;;;;;;4.53;1.10;;;;;;;;;;10364542;28;20124;-90
2023/08/14 04:00:13;;;;;;;1.83;0.85;;;;;;;;;;10374903;28;20144;-89
2023/08/14 04:05:18;;;;;;;1.23;0.85;;;;;;;;;;10377590;28;20041;-90
2023/08/14 04:10:21;;;;;;;0.63;0.52;;;;;;;;;;10364229;28;20045;-90
2023/08/14 04:15:27;;;;;;;1.20;0.60;;;;;;;;;;10360665;28;21001;-89
2023/08/14 04:20:31;;;;;;;0.70;0.70;;;;;;;;;;10377327;28;20051;-90
2023/08/14 04:25:34;;;;;;;1.05;0.57;;;;;;;;;;10344714;28;20125;-90
2023/08/14 04:30:39;;;;;;;1.55;0.88;;;;;;;;;;10351686;28;20042;-90
2023/08/14 04:35:43;;;;;;;0.63;0.52;;;;;;;;;;10358041;28;20053;-90
2023/08/14 04:40:46;;;;;;;1.45;0.80;;;;;;;;;;10365199;28;20053;-91
2023/08/14 04:45:52;;;;;;;1.10;0.60;;;;;;;;;;10354969;28;20041;-91
2023/08/14 04:50:55;;;;;;;1.30;0.60;;;;;;;;;;10356535;28;20041;-89
2023/08/14 04:55:59;;;;;;;1.50;0.80;;;;;;;;;;10358429;28;20443;-86
2023/08/14 05:01:05;;;;;;;1.75;0.47;;;;;;;;;;10354335;28;20088;-85
2023/08/14 05:06:12;;;;;;;;;;;;;;;;;;10376679;28;20048;-86
2023/08/14 05:11:16;;;;;;;0.98;0.40;;;;;;;;;;10366021;28;19932;-87
2023/08/14 05:16:28;;;;;;;0.93;0.70;;;;;;;;;;10360173;28;20411;-87
2023/08/14 05:21:34;;;;;;;0.70;0.50;;;;;;;;;;10349701;28;20042;-87
2023/08/14 05:26:37;;;;;;;1.33;0.68;;;;;;;;;;10358548;28;20050;-88
2023/08/14 05:31:42;;;;;;;2.70;0.70;;;;;;;;;;10363026;28;20050;-87
2023/08/14 05:36:51;;;;;;;2.67;0.80;;;;;;;;;;10405556;28;20454;-87
2023/08/14 05:41:55;;;;;;;0.90;0.70;;;;;;;;;;10373578;28;20046;-87
2023/08/14 05:47:04;;;;;;;2.03;0.93;;;;;;;;;;10393041;28;20065;-88
2023/08/14 05:52:07;;;;;;;0.70;0.68;;;;;;;;;;10376699;28;20041;-88
2023/08/14 05:57:15;;;;;;;1.35;0.52;;;;;;;;;;10370192;28;20049;-88
2023/08/14 06:02:20;;;;;;;1.90;0.73;;;;;;;;;;10384402;28;20512;-87
2023/08/14 06:07:28;;;;;;;4.93;0.70;;;;;;;;;;10357309;28;20041;-85
2023/08/14 06:12:32;;;;;;;1.67;0.60;;;;;;;;;;10379321;28;20550;-86
2023/08/14 06:17:37;;;;;;;1.33;0.50;;;;;;;;;;10367778;28;20564;-86
2023/08/14 06:22:46;;;;;;;1.63;0.57;;;;;;;;;;10373103;28;20045;-86
2023/08/14 06:27:49;;;;;;;1.98;0.50;;;;;;;;;;10365803;28;20041;-87
2023/08/14 06:32:58;;;;;;;0.98;0.50;;;;;;;;;;10378539;28;20068;-86
2023/08/14 06:38:02;;;;;;;3.47;0.77;;;;;;;;;;10377955;28;20049;-87
2023/08/14 06:43:07;;;;;;;2.33;0.60;;;;;;;;;;10366627;28;20046;-86
2023/08/14 06:48:15;;;;;;;2.42;0.70;;;;;;;;;;10373437;28;20171;-86
2023/08/14 06:53:21;;;;;;;2.38;0.90;;;;;;;;;;10354124;28;20051;-87
2023/08/14 06:58:25;;;;;;;0.98;0.60;;;;;;;;;;10386417;28;20056;-87
2023/08/14 07:03:30;;;;;;;1.80;1.20;;;;;;;;;;10361106;28;20049;-87
2023/08/14 07:08:41;;;;;;;2.15;0.90;;;;;;;;;;10363171;28;20049;-86
2023/08/14 07:13:48;;;;;;;2.28;0.80;;;;;;;;;;10365037;28;20379;-87
2023/08/14 07:18:54;;;;;;;1.15;0.43;;;;;;;;;;10369548;28;20414;-87
2023/08/14 07:24:05;;;;;;;2.70;0.70;;;;;;;;;;10375209;28;20056;-86
2023/08/14 07:29:09;;;;;;;0.68;0.50;;;;;;;;;;10373920;28;20046;-92
2023/08/14 07:34:17;;;;;;;0.70;0.40;;;;;;;;;;10360066;28;20265;-89
2023/08/14 07:39:20;;;;;;;1.13;0.70;;;;;;;;;;10385418;28;20049;-89
2023/08/14 07:44:26;;;;;;;3.67;0.90;;;;;;;;;;10377191;28;20050;-89
2023/08/14 07:49:33;;;;;;;3.08;0.77;;;;;;;;;;10314887;28;20531;-90
2023/08/14 07:54:36;;;;;;;1.33;0.50;;;;;;;;;;10326639;28;20053;-90
2023/08/14 07:59:48;;;;;;;1.00;0.47;;;;;;;;;;10322278;28;20039;-90
2023/08/14 08:04:53;;;;;;;1.77;0.77;;;;;;;;;;10333611;28;20050;-89
2023/08/14 08:10:03;;;;;;;1.57;0.70;;;;;;;;;;10318278;28;20488;-90
2023/08/14 08:15:07;;;;;;;1.45;0.65;;;;;;;;;;10315592;28;20133;-89
2023/08/14 08:20:13;;;;;;;1.48;0.60;;;;;;;;;;10318458;28;20050;-89
2023/08/14 08:25:17;;;;;;;2.45;0.70;;;;;;;;;;10318801;28;20685;-90
2023/08/14 08:30:25;;;;;;;0.82;0.60;;;;;;;;;;10318836;28;20125;-90
2023/08/14 08:35:30;;;;;;;1.50;0.70;;;;;;;;;;10306164;28;20045;-90
2023/08/14 08:40:39;;;;;;;0.97;0.60;;;;;;;;;;10344948;28;20041;-90
2023/08/14 08:45:54;;;;;;;1.13;0.77;;;;;;;;;;10305296;28;20050;-90
2023/08/14 08:50:59;;;;;;;1.00;0.80;;;;;;;;;;10330588;28;20033;-90
2023/08/14 08:56:07;;;;;;;1.05;0.57;;;;;;;;;;10368423;28;20038;-90
2023/08/14 09:01:11;;;;;;;1.13;0.57;;;;;;;;;;10313390;28;20050;-90
2023/08/14 09:06:24;;;;;;;1.70;0.73;;;;;;;;;;10311918;28;20153;-90
2023/08/14 09:11:29;;;;;;;0.77;0.57;;;;;;;;;;10320613;28;20038;-90
2023/08/14 09:16:35;;;;;;;1.15;0.75;;;;;;;;;;10316633;28;20052;-90
2023/08/14 09:21:43;;;;;;;1.35;0.80;;;;;;;;;;10325681;28;20064;-89
2023/08/14 09:26:47;;;;;;;0.75;0.60;;;;;;;;;;10317879;28;20042;-90
2023/08/14 09:31:55;;;;;;;1.00;0.60;;;;;;;;;;10330004;28;20043;-90
2023/08/14 09:37:07;;;;;;;0.93;0.70;;;;;;;;;;10317429;28;20053;-90
2023/08/14 09:42:13;;;;;;;0.80;0.67;;;;;;;;;;10326522;28;20443;-90
2023/08/14 09:47:23;;;;;;;2.25;0.77;;;;;;;;;;10306559;28;20057;-91
2023/08/14 09:52:28;;;;;;;0.90;0.57;;;;;;;;;;10331928;28;20057;-89
2023/08/14 09:57:33;;;;;;;0.85;0.70;;;;;;;;;;10329835;28;20250;-89
2023/08/14 10:02:38;;;;;;;1.60;0.65;;;;;;;;;;10319363;28;20054;-90
2023/08/14 10:07:47;;;;;;;2.10;1.00;;;;;;;;;;10331488;28;20615;-89
2023/08/14 10:12:54;;;;;;;1.27;0.60;;;;;;;;;;10320364;28;20046;-89
2023/08/14 10:18:20;;;;;;;1.95;0.70;;;;;;;;;;10335448;28;20448;-90
2023/08/14 10:23:25;;;;;;;1.05;0.88;;;;;;;;;;10342560;28;20054;-90
2023/08/14 10:28:35;;;;;;;1.02;0.75;;;;;;;;;;10302264;28;20298;-89
2023/08/14 10:33:39;;;;;;;1.10;0.80;;;;;;;;;;10342268;28;20511;-89
2023/08/14 10:38:46;;;;;;;1.07;0.80;;;;;;;;;;10329746;28;20042;-89
2023/08/14 10:43:51;;;;;;;1.25;0.85;;;;;;;;;;10334379;28;20084;-90
2023/08/14 10:48:58;;;;;;;1.37;0.80;;;;;;;;;;10329757;28;20042;-87
2023/08/14 10:54:12;;;;;;;1.60;1.17;;;;;;;;;;10349705;28;20096;-90
2023/08/14 10:59:23;;;;;;;1.15;0.80;;;;;;;;;;10330035;28;20046;-89
2023/08/14 11:04:28;;;;;;;1.33;0.95;;;;;;;;;;10324412;28;20130;-89
2023/08/14 11:09:35;;;;;;;2.90;0.95;;;;;;;;;;10309164;28;20042;-89
2023/08/14 11:14:41;;;;;;;2.30;1.30;;;;;;;;;;10377603;28;20406;-90
2023/08/14 11:19:47;;;;;;;3.22;1.95;;;;;;;;;;10382879;23;20068;-83
2023/08/14 11:24:52;;;;;;;1.95;1.15;;;;;;;;;;10425212;28;20378;-83
2023/08/14 11:29:56;;;;;;;0.88;0.88;;;;;;;;;;10396634;28;20078;-83
2023/08/14 11:35:03;;;;;;;1.08;0.70;;;;;;;;;;10380018;28;20080;-83
2023/08/14 11:40:13;;;;;;;2.00;0.80;;;;;;;;;;10389862;28;20034;-83
2023/08/14 11:45:16;;;;;;;1.73;0.80;;;;;;;;;;10395744;28;20041;-82
2023/08/14 11:50:21;;;;;;;3.28;1.20;;;;;;;;;;10409863;28;20054;-82
2023/08/14 11:55:28;;;;;;;1.67;1.00;;;;;;;;;;10392167;28;20084;-82
2023/08/14 12:00:31;;;;;;;1.05;0.73;;;;;;;;;;10410323;28;20064;-81
2023/08/14 12:05:36;;;;;;;1.00;0.90;;;;;;;;;;10409177;28;20060;-83
2023/08/14 12:10:41;;;;;;;1.75;0.73;;;;;;;;;;10400877;28;20064;-83
2023/08/14 12:15:44;;;;;;;;;;;;;;;;;;10403331;28;20104;-82
2023/08/14 12:20:51;;;;;;;1.17;0.52;;;;;;;;;;10394424;28;20012;-83
2023/08/14 12:25:56;;;;;;;1.67;0.73;;;;;;;;;;10385625;28;20442;-83
2023/08/14 12:31:00;;;;;;;1.92;0.85;;;;;;;;;;10402417;28;20068;-83
2023/08/14 12:36:04;;;;;;;0.93;0.70;;;;;;;;;;10400072;28;20399;-84
2023/08/14 12:41:08;;;;;;;1.75;0.70;;;;;;;;;;10395975;28;20136;-83
2023/08/14 12:46:17;;;;;;;1.70;0.90;;;;;;;;;;10406512;28;20455;-83
2023/08/14 12:51:21;;;;;;;1.85;0.70;;;;;;;;;;10393263;28;20057;-82
2023/08/14 12:56:25;;;;;;;1.30;0.75;;;;;;;;;;10405137;28;20056;-82
2023/08/14 13:01:29;;;;;;;1.87;1.07;;;;;;;;;;10402495;28;20124;-83
2023/08/14 13:06:33;;;;;;;1.08;0.75;;;;;;;;;;10396201;28;20037;-83
2023/08/14 13:11:37;;;;;;;3.05;1.00;;;;;;;;;;10397296;28;20061;-84
2023/08/14 13:16:40;;;;;;;2.70;1.30;;;;;;;;;;10390372;28;20492;-83
2023/08/14 13:21:44;;;;;;;0.93;0.90;;;;;;;;;;10395164;28;20076;-83
2023/08/14 13:26:49;;;;;;;0.95;0.88;;;;;;;;;;10404028;28;20045;-84
2023/08/14 13:31:53;;;;;;;1.45;1.10;;;;;;;;;;10394776;28;20057;-82
2023/08/14 13:36:56;;;;;;;1.90;1.00;;;;;;;;;;10401461;28;20501;-83
2023/08/14 13:42:00;;;;;;;0.73;0.65;;;;;;;;;;10393524;28;20121;-83
2023/08/14 13:47:04;;;;;;;1.33;0.73;;;;;;;;;;10405349;28;20076;-82
2023/08/14 13:52:07;;;;;;;1.15;0.70;;;;;;;;;;10405342;28;20208;-83
2023/08/14 13:57:12;;;;;;;1.88;0.60;;;;;;;;;;10412965;28;20136;-83
2023/08/14 14:02:15;;;;;;;1.47;1.07;;;;;;;;;;10401171;28;20133;-83
2023/08/14 14:07:19;;;;;;;1.40;0.80;;;;;;;;;;10397508;28;20320;-83
2023/08/14 14:12:27;;;;;;;1.63;0.80;;;;;;;;;;10414624;28;20049;-82
2023/08/14 14:17:31;;;;;;;0.57;0.57;;;;;;;;;;10414230;28;20049;-83
2023/08/14 14:22:34;;;;;;;1.08;0.77;;;;;;;;;;10408140;28;20137;-82
2023/08/14 14:27:39;;;;;;;0.88;0.60;;;;;;;;;;10412521;28;20046;-84
2023/08/14 14:32:42;;;;;;;1.40;0.75;;;;;;;;;;10412565;28;20046;-83
2023/08/14 14:37:46;;;;;;;1.10;1.00;;;;;;;;;;10410450;28;20564;-83
2023/08/14 14:42:53;;;;;;;1.30;0.80;;;;;;;;;;10397842;28;20438;-83
2023/08/14 14:47:56;;;;;;;2.65;0.70;;;;;;;;;;10396647;28;20766;-82
2023/08/14 14:53:00;;;;;;;1.10;1.00;;;;;;;;;;10393729;28;20147;-83
2023/08/14 14:58:05;;;;;;;2.78;1.02;;;;;;;;;;10396380;28;20073;-83
2023/08/14 15:03:08;;;;;;;1.95;1.13;;;;;;;;;;10413896;28;20030;-83
2023/08/14 15:08:11;;;;;;;1.55;0.60;;;;;;;;;;10396139;28;20038;-83
2023/08/14 15:13:16;;;;;;;1.80;0.93;;;;;;;;;;10397574;28;20087;-83
2023/08/14 15:18:20;;;;;;;1.17;1.00;;;;;;;;;;10413930;28;20132;-82
2023/08/14 15:23:23;;;;;;;0.93;0.73;;;;;;;;;;10414814;28;20477;-82
2023/08/14 15:28:28;;;;;;;1.35;0.90;;;;;;;;;;10425875;28;20068;-82
2023/08/14 15:33:32;;;;;;;0.82;0.68;;;;;;;;;;10407100;28;20064;-82
2023/08/14 15:38:35;;;;;;;0.68;0.63;;;;;;;;;;10395390;28;20152;-82
2023/08/14 15:43:41;;;;;;;0.80;0.65;;;;;;;;;;10418042;28;20065;-82
2023/08/14 15:48:46;;;;;;;0.80;0.70;;;;;;;;;;10400711;28;20084;-83
2023/08/14 15:53:49;;;;;;;1.30;0.70;;;;;;;;;;10408058;28;20053;-84
2023/08/14 15:58:54;;;;;;;1.73;0.80;;;;;;;;;;10406517;28;20049;-85
2023/08/14 16:03:57;;;;;;;1.90;0.93;;;;;;;;;;10402623;28;20060;-85
2023/08/14 16:09:01;;;;;;;1.25;0.85;;;;;;;;;;10406373;28;20503;-84
2023/08/14 16:14:05;;;;;;;1.58;1.10;;;;;;;;;;10406562;28;20064;-84
2023/08/14 16:19:09;;;;;;;1.47;0.93;;;;;;;;;;10397659;28;20116;-84
2023/08/14 16:24:12;;;;;;;1.45;0.90;;;;;;;;;;10404476;28;20037;-84
2023/08/14 16:29:17;;;;;;;1.02;0.80;;;;;;;;;;10406055;28;20069;-84
2023/08/14 16:34:20;;;;;;;1.23;1.10;;;;;;;;;;10411692;28;20193;-84
2023/08/14 16:39:23;;;;;;;1.98;0.90;;;;;;;;;;10395968;28;20072;-83
2023/08/14 16:44:30;;;;;;;1.98;1.00;;;;;;;;;;10405498;28;20124;-84
2023/08/14 16:49:34;;;;;;;1.70;1.10;;;;;;;;;;10404178;28;20071;-85
2023/08/14 16:54:37;;;;;;;1.52;0.80;;;;;;;;;;10380081;28;20045;-84
2023/08/14 16:59:42;;;;;;;1.00;0.90;;;;;;;;;;10405423;28;20120;-84
2023/08/14 17:04:45;;;;;;;1.40;1.07;;;;;;;;;;10410245;28;20069;-84
2023/08/14 17:09:48;;;;;;;0.63;0.63;;;;;;;;;;10405772;28;20100;-83
2023/08/14 17:14:53;;;;;;;1.55;0.80;;;;;;;;;;10414084;28;20073;-85
2023/08/14 17:19:56;;;;;;;1.17;0.80;;;;;;;;;;10414726;28;20045;-82
2023/08/14 17:24:59;;;;;;;2.15;0.88;;;;;;;;;;10423996;28;20045;-83
2023/08/14 17:30:05;;;;;;;2.70;1.25;;;;;;;;;;10412829;28;20502;-82
2023/08/14 17:35:09;;;;;;;1.23;1.10;;;;;;;;;;10418632;28;20073;-83
2023/08/14 17:40:13;;;;;;;2.10;0.90;;;;;;;;;;10410616;28;20052;-83
2023/08/14 17:45:17;;;;;;;0.90;0.80;;;;;;;;;;10455442;28;20052;-82
2023/08/14 17:50:21;;;;;;;1.80;0.90;;;;;;;;;;10429806;28;20621;-82
2023/08/14 17:55:24;;;;;;;3.40;0.73;;;;;;;;;;10408487;28;20046;-82
2023/08/14 18:00:29;;;;;;;1.30;1.05;;;;;;;;;;10422669;28;20045;-82
2023/08/14 18:05:33;;;;;;;0.93;0.80;;;;;;;;;;10423563;28;20489;-82
2023/08/14 18:10:36;;;;;;;2.17;0.75;;;;;;;;;;10422050;28;20045;-82
2023/08/14 18:15:40;;;;;;;2.20;1.40;;;;;;;;;;10421131;28;20057;-81
2023/08/14 18:20:44;;;;;;;1.07;0.97;;;;;;;;;;10420827;28;20549;-82
2023/08/14 18:25:51;;;;;;;2.38;0.90;;;;;;;;;;10411457;28;20057;-81
2023/08/14 18:30:56;;;;;;;3.05;1.20;;;;;;;;;;10421119;28;20045;-82
2023/08/14 18:36:00;;;;;;;2.37;1.07;;;;;;;;;;10412786;28;20472;-83
2023/08/14 18:41:03;;;;;;;1.13;0.82;;;;;;;;;;10421468;28;20276;-82
2023/08/14 18:46:08;;;;;;;1.30;0.70;;;;;;;;;;10405402;28;20046;-83
2023/08/14 18:51:11;;;;;;;1.35;0.82;;;;;;;;;;10411438;28;20108;-82
2023/08/14 18:56:14;;;;;;;1.27;0.80;;;;;;;;;;10418110;28;20390;-81
2023/08/14 19:01:19;;;;;;;1.10;0.90;;;;;;;;;;10408457;28;20087;-81
2023/08/14 19:06:22;;;;;;;2.13;0.80;;;;;;;;;;10399512;28;20053;-82
2023/08/14 19:11:26;;;;;;;6.22;1.10;;;;;;;;;;10407935;28;20052;-82
2023/08/14 19:16:31;;;;;;;1.23;0.95;;;;;;;;;;10406850;28;20053;-82
2023/08/14 19:21:34;;;;;;;1.60;0.90;;;;;;;;;;10396806;28;20049;-82
2023/08/14 19:26:38;;;;;;;2.25;1.10;;;;;;;;;;10409654;28;20350;-82
2023/08/14 19:31:43;;;;;;;3.25;0.98;;;;;;;;;;10414569;28;20037;-83
2023/08/14 19:36:47;;;;;;;3.40;0.95;;;;;;;;;;10340746;28;20112;-83
2023/08/14 19:41:50;;;;;;;1.27;1.17;;;;;;;;;;10333511;28;20058;-82
2023/08/14 19:46:58;;;;;;;2.05;1.17;;;;;;;;;;10331478;28;20198;-82
2023/08/14 19:52:05;;;;;;;1.85;1.02;;;;;;;;;;10327952;28;20042;-82
2023/08/14 19:57:09;;;;;;;1.98;0.80;;;;;;;;;;10317797;28;20050;-82
2023/08/14 20:02:13;;;;;;;2.72;1.05;;;;;;;;;;10328882;28;20054;-82
2023/08/14 20:07:17;;;;;;;1.20;0.95;;;;;;;;;;10326014;28;20458;-82
2023/08/14 20:12:20;;;;;;;1.70;0.93;;;;;;;;;;10315708;28;20145;-82
2023/08/14 20:17:25;;;;;;;1.50;1.00;;;;;;;;;;10335354;28;20041;-83
2023/08/14 20:22:29;;;;;;;2.70;1.48;;;;;;;;;;10329852;28;20038;-82
2023/08/14 20:27:33;;;;;;;1.98;1.30;;;;;;;;;;10333494;28;20050;-82
2023/08/14 20:32:39;;;;;;;1.40;1.20;;;;;;;;;;10324576;28;20046;-83
2023/08/14 20:37:42;;;;;;;2.05;1.20;;;;;;;;;;10337622;28;20050;-82
2023/08/14 20:42:46;;;;;;;2.70;1.30;;;;;;;;;;10317596;28;20046;-82
2023/08/14 20:47:51;;;;;;;2.53;1.05;;;;;;;;;;10337589;28;20061;-82
2023/08/14 20:52:54;;;;;;;1.67;1.27;;;;;;;;;;10309517;28;20100;-83
2023/08/14 20:57:58;;;;;;;1.67;1.50;;;;;;;;;;10332666;28;20042;-84
2023/08/14 21:03:02;;;;;;;2.15;1.80;;;;;;;;;;10340580;28;20046;-85
2023/08/14 21:08:06;;;;;;;3.45;1.80;;;;;;;;;;10329405;28;20062;-84
2023/08/14 21:13:10;;;;;;;1.60;1.48;;;;;;;;;;10326528;28;20042;-83
2023/08/14 21:18:15;;;;;;;2.60;1.88;;;;;;;;;;10326195;28;20041;-84
2023/08/14 21:23:19;;;;;;;1.87;1.57;;;;;;;;;;10317923;28;20117;-83
2023/08/14 21:28:22;;;;;;;2.45;1.70;;;;;;;;;;10326244;28;20046;-82
2023/08/14 21:33:27;;;;;;;1.45;1.25;;;;;;;;;;10325380;28;20042;-84
2023/08/14 21:38:30;;;;;;;3.08;1.80;;;;;;;;;;10357731;28;20084;-83
2023/08/14 21:43:34;;;;;;;2.80;1.30;;;;;;;;;;10338801;28;20061;-82
2023/08/14 21:48:38;;;;;;;2.97;1.27;;;;;;;;;;10357907;28;20112;-83
2023/08/14 21:53:42;;;;;;;1.70;1.35;;;;;;;;;;10323487;28;20074;-83
2023/08/14 21:58:45;;;;;;;3.42;1.08;;;;;;;;;;10334096;28;20046;-83
2023/08/14 22:03:50;;;;;;;3.33;1.20;;;;;;;;;;10356596;28;20072;-83
2023/08/14 22:08:53;;;;;;;1.97;1.27;;;;;;;;;;10348467;28;20133;-82
2023/08/14 22:13:57;;;;;;;4.60;1.33;;;;;;;;;;10319308;28;20496;-82
2023/08/14 22:19:01;;;;;;;2.55;1.35;;;;;;;;;;10344200;28;20069;-83
2023/08/14 22:24:05;;;;;;;2.40;1.35;;;;;;;;;;10342012;28;20066;-83
2023/08/14 22:29:08;;;;;;;1.60;1.00;;;;;;;;;;10335591;28;20062;-83
2023/08/14 22:34:14;;;;;;;2.80;1.15;;;;;;;;;;10317533;28;20516;-83
2023/08/14 22:39:17;;;;;;;1.77;1.10;;;;;;;;;;10325305;28;20125;-84
2023/08/14 22:44:21;;;;;;;3.15;1.38;;;;;;;;;;10328087;28;20137;-85
2023/08/14 22:49:25;;;;;;;2.35;1.25;;;;;;;;;;10325617;28;20080;-85
2023/08/14 22:54:29;;;;;;;3.97;1.13;;;;;;;;;;10328251;28;20038;-84
2023/08/14 22:59:32;;;;;;;4.88;1.30;;;;;;;;;;10331775;28;20049;-85
2023/08/14 23:04:37;;;;;;;2.45;1.40;;;;;;;;;;10345877;28;20074;-85
2023/08/14 23:09:40;;;;;;;4.28;1.10;;;;;;;;;;10326658;28;20138;-85
2023/08/14 23:14:43;;;;;;;1.83;1.08;;;;;;;;;;10336692;28;20567;-84
2023/08/14 23:19:48;;;;;;;1.60;1.13;;;;;;;;;;10331141;28;20119;-83
2023/08/14 23:24:51;;;;;;;2.17;1.20;;;;;;;;;;10342473;28;20509;-84
2023/08/14 23:29:55;;;;;;;1.55;0.90;;;;;;;;;;10325389;28;20046;-84
2023/08/14 23:34:59;;;;;;;2.03;1.10;;;;;;;;;;10350959;28;20101;-84
2023/08/14 23:40:04;;;;;;;1.55;1.20;;;;;;;;;;10336324;28;20137;-85
2023/08/14 23:45:08;;;;;;;2.85;1.35;;;;;;;;;;10330023;28;20432;-85
2023/08/14 23:50:12;;;;;;;1.42;1.00;;;;;;;;;;10342167;28;20039;-85
2023/08/14 23:55:16;;;;;;;2.72;1.10;;;;;;;;;;10339772;28;20050;-84
